• Join FlightAware (Why Join?)
  • Login
  • US Flag 
02:46PM EDT


 

Airport Tracker/Info


-or-


 

Live Flight TrackerFlight Track Log ✈ SWA1718 ✈ 12-Apr-2013 ✈ KMDW - KLAX

Flight Track Log - Related Links

Times and Time Zones

All times are in EDT time to prevent confusion due to time zone crossing. See the SWA1718 flight status page for this flight to view local times or setup timezone preferences in your user account.

Time Position Orientation Groundspeed Altitude Reporting Facility
EDT Latitude Longitude Course Direction KTS MPH feet Rate Location/Type
07:29AM 41.7833 -87.8167 255° West 185 213 2,900  Level Chicago TRACON
07:30AM 41.7667 -87.9000 255° West 204 235 3,700 1,440 Climbing Chicago TRACON
07:31AM 41.7683 -87.9433 273° West 219 252 5,500 2,880 Climbing Chicago Center
07:32AM 41.7664 -88.0367 268° West 252 290 8,800 3,300 Climbing Chicago Center
07:33AM 41.7672 -88.1556 271° West 267 307 12,300 2,700 Climbing Chicago Center
07:34AM 41.7711 -88.2778 272° West 325 374 14,400 2,400 Climbing Chicago Center
07:35AM 41.7733 -88.4067 271° West 346 398 17,200 3,000 Climbing Chicago Center
07:36AM 41.7761 -88.5400 272° West 357 411 20,600 2,760 Climbing Chicago Center
07:37AM 41.7733 -88.6744 268° West 368 423 22,900 2,160 Climbing Chicago Center
07:38AM 41.7428 -88.8058 253° West 371 427 25,000 1,980 Climbing Chicago Center
07:39AM 41.7136 -88.9397 254° West 377 434 27,000 1,860 Climbing Chicago Center
07:40AM 41.6758 -89.1047 253° West 388 447 28,900 1,860 Climbing Chicago Center
07:41AM 41.6467 -89.2431 254° West 390 449 30,900 1,680 Climbing Chicago Center
07:42AM 41.6175 -89.3803 254° West 385 443 32,400 1,320 Climbing Chicago Center
07:43AM 41.5844 -89.5206 253° West 394 453 33,600 1,200 Climbing Chicago Center
07:44AM 41.5486 -89.6711 252° West 403 464 34,900 1,020 Climbing Chicago Center
07:45AM 41.5164 -89.8136 253° West 403 464 35,700 660 Climbing Chicago Center
07:46AM 41.4933 -89.9664 259° West 417 480 36,300 1,080 Climbing Chicago Center
07:47AM 41.4731 -90.1167 260° West 414 476 37,900 780 Climbing Chicago Center
07:48AM 41.4542 -90.2622 260° West 404 465 38,000  Climbing Chicago Center
07:49AM 41.4339 -90.4108 260° West 409 471 38,000  Level Chicago Center
07:50AM 41.4144 -90.5600 260° West 409 471 38,000  Level Chicago Center
07:51AM 41.3869 -90.7450 259° West 424 488 38,000  Level Chicago Center
07:52AM 41.3664 -90.8944 260° West 417 480 38,000  Level Chicago Center
07:53AM 41.3447 -91.0419 259° West 411 473 38,000  Level Chicago Center
07:54AM 41.3250 -91.1869 260° West 403 464 38,000  Level Chicago Center
07:55AM 41.3042 -91.3314 259° West 407 468 38,000  Level Chicago Center
07:56AM 41.2836 -91.4769 259° West 404 465 38,000  Level Chicago Center
07:57AM 41.2617 -91.6214 259° West 402 463 38,000  Level Chicago Center
07:59AM 41.2356 -91.7942 259° West 407 468 38,000  Level Chicago Center
08:00AM 41.2147 -91.9394 259° West 406 467 38,000  Level Chicago Center
08:01AM 41.1919 -92.0875 258° West 411 473 38,000  Level Chicago Center
08:02AM 41.1689 -92.2336 258° West 411 473 38,000  Level Chicago Center
08:03AM 41.1475 -92.3808 259° West 411 473 38,000  Level Chicago Center
08:04AM 41.1244 -92.5242 258° West 404 465 38,000  Level Chicago Center
08:05AM 41.0964 -92.7000 258° West 411 473 38,000  Level Chicago Center
08:06AM 41.0742 -92.8425 258° West 403 464 38,000  Level Chicago Center
08:07AM 41.0508 -92.9856 258° West 403 464 38,000  Level Chicago Center
08:07AM 41.0469 -93.0158 260° West 403 464 38,000  Level Minneapolis Center
08:08AM 41.0200 -93.1850 258° West 399 459 38,000  Level Minneapolis Center
08:09AM 40.9967 -93.3269 258° West 397 457 38,000  Level Minneapolis Center
08:10AM 40.9722 -93.4728 258° West 406 467 38,000  Level Minneapolis Center
08:11AM 40.9486 -93.6167 258° West 405 466 38,000  Level Minneapolis Center
08:12AM 40.9242 -93.7611 257° West 407 468 38,000  Level Minneapolis Center
08:13AM 40.9008 -93.9050 258° West 405 466 38,000  Level Minneapolis Center
08:14AM 40.8747 -94.0519 257° West 410 472 38,000  Level Minneapolis Center
08:15AM 40.8511 -94.1967 258° West 409 471 38,000  Level Minneapolis Center
08:16AM 40.8169 -94.3731 256° West 412 474 38,000  Level Minneapolis Center
08:17AM 40.7942 -94.5172 258° West 408 470 38,000  Level Minneapolis Center
08:18AM 40.7703 -94.6586 257° West 407 468 38,000  Level Minneapolis Center
08:19AM 40.7444 -94.8039 257° West 406 467 38,000  Level Minneapolis Center
08:20AM 40.7192 -94.9481 257° West 404 465 38,000  Level Minneapolis Center
08:21AM 40.6936 -95.0925 257° West 403 464 38,000  Level Minneapolis Center
08:22AM 40.6664 -95.2397 256° West 407 468 38,000  Level Minneapolis Center
08:23AM 40.6392 -95.3864 256° West 411 473 38,000  Level Minneapolis Center
08:24AM 40.6083 -95.5594 257° West 406 467 38,000  Level Minneapolis Center
08:25AM 40.5814 -95.7033 256° West 403 464 38,000  Level Minneapolis Center
08:26AM 40.5553 -95.8475 257° West 405 466 38,000  Level Minneapolis Center
08:27AM 40.5275 -95.9914 256° West 404 465 38,000  Level Minneapolis Center
08:28AM 40.5014 -96.1331 256° West 400 460 38,000  Level Minneapolis Center
08:29AM 40.4739 -96.2750 256° West 400 460 38,000  Level Minneapolis Center
08:30AM 40.4469 -96.4178 256° West 401 461 38,000  Level Minneapolis Center
08:31AM 40.4189 -96.5606 256° West 403 464 38,000  Level Minneapolis Center
08:32AM 40.3914 -96.7028 256° West 402 463 38,000  Level Minneapolis Center
08:34AM 40.3633 -96.8483 256° West 407 468 38,000  Level Minneapolis Center
08:35AM 40.3342 -96.9939 255° West 412 474 38,000  Level Minneapolis Center
08:36AM 40.3044 -97.1408 255° West 415 478 38,000  Level Minneapolis Center
08:37AM 40.2753 -97.2858 255° West 413 475 38,000  Level Minneapolis Center
08:38AM 40.2411 -97.4572 255° West 416 479 38,000  Level Minneapolis Center
08:39AM 40.2111 -97.6039 255° West 416 479 38,000  Level Minneapolis Center
08:40AM 40.1814 -97.7472 255° West 410 472 38,000  Level Minneapolis Center
08:41AM 40.1522 -97.8906 255° West 409 471 38,000  Level Minneapolis Center
08:42AM 40.1231 -98.0342 255° West 407 468 38,000  Level Minneapolis Center
08:43AM 40.0928 -98.1772 255° West 407 468 38,000  Level Minneapolis Center
08:44AM 40.0619 -98.3197 254° West 407 468 38,000  Level Minneapolis Center
08:45AM 40.0314 -98.4614 254° West 405 466 38,000  Level Minneapolis Center
08:46AM 40.0019 -98.6053 255° West 406 467 38,000  Level Minneapolis Center
08:47AM 39.9708 -98.7497 254° West 409 471 38,000  Level Minneapolis Center
08:48AM 39.9392 -98.8953 254° West 411 473 38,000  Level Minneapolis Center
08:48AM 39.9194 -98.9842 254° West 418 481 38,000  Level Denver Center
08:49AM 39.8875 -99.1292 254° West 416 479 38,000  Level Denver Center
08:50AM 39.8550 -99.2772 254° West 422 486 38,000  Level Denver Center
08:51AM 39.8225 -99.4242 254° West 422 486 38,000  Level Denver Center
08:52AM 39.7894 -99.5700 254° West 422 486 38,000  Level Denver Center
08:53AM 39.7567 -99.7164 254° West 421 484 38,000  Level Denver Center
08:54AM 39.7242 -99.8625 254° West 419 482 38,000  Level Denver Center
08:55AM 39.6897 -100.0103 253° West 422 486 38,000  Level Denver Center
08:56AM 39.6522 -100.1758 254° West 424 488 38,000  Level Denver Center
08:57AM 39.6200 -100.3161 253° West 425 489 38,000  Level Denver Center
08:58AM 39.5867 -100.4592 253° West 430 495 38,000  Level Denver Center
08:59AM 39.5478 -100.6231 253° West 426 490 38,000  Level Denver Center
09:00AM 39.5158 -100.7633 254° West 425 489 38,000  Level Denver Center
09:01AM 39.4819 -100.9031 253° West 425 489 38,000  Level Denver Center
09:02AM 39.4436 -101.0667 253° West 427 491 38,000  Level Denver Center
09:04AM 39.4108 -101.2017 253° West 415 478 38,000  Level Denver Center
09:05AM 39.3786 -101.3372 253° West 413 475 38,000  Level Denver Center
09:06AM 39.3400 -101.4936 252° West 408 470 38,000  Level Denver Center
09:07AM 39.3078 -101.6269 253° West 405 466 38,000  Level Denver Center
09:08AM 39.2736 -101.7614 252° West 410 472 38,000  Level Denver Center
09:09AM 39.2353 -101.9175 252° West 410 472 38,000  Level Denver Center
09:10AM 39.2025 -102.0531 253° West 412 474 38,000  Level Denver Center
09:11AM 39.1678 -102.1867 252° West 414 476 38,000  Level Denver Center
09:12AM 39.1289 -102.3422 252° West 411 473 38,000  Level Denver Center
09:13AM 39.0956 -102.4744 252° West 408 470 38,000  Level Denver Center
09:14AM 39.0617 -102.6072 252° West 408 470 38,000  Level Denver Center
09:15AM 39.0233 -102.7550 252° West 405 466 38,000  Level Denver Center
09:16AM 38.9881 -102.8956 252° West 410 472 38,000  Level Denver Center
09:17AM 38.9517 -103.0333 251° West 405 466 38,000  Level Denver Center
09:18AM 38.9169 -103.1731 252° West 408 470 38,000  Level Denver Center
09:19AM 38.8797 -103.3119 251° West 406 467 38,000  Level Denver Center
09:20AM 38.8414 -103.4583 251° West 404 465 38,000  Level Denver Center
09:21AM 38.8067 -103.5892 251° West 407 468 38,000  Level Denver Center
09:22AM 38.7725 -103.7175 251° West 400 460 38,000  Level Denver Center
09:23AM 38.7319 -103.8681 251° West 400 460 38,000  Level Denver Center
09:24AM 38.6967 -103.9992 251° West 407 468 38,000  Level Denver Center
09:25AM 38.6597 -104.1372 251° West 406 467 38,000  Level Denver Center
09:26AM 38.6222 -104.2783 251° West 412 474 38,000  Level Denver Center
09:27AM 38.5847 -104.4169 251° West 409 471 38,000  Level Denver Center
09:28AM 38.5461 -104.5544 250° West 409 471 38,000  Level Denver Center
09:29AM 38.5078 -104.6928 251° West 407 468 38,000  Level Denver Center
09:30AM 38.4708 -104.8261 251° West 398 458 38,000  Level Denver Center
09:31AM 38.4336 -104.9592 250° West 395 455 38,000  Level Denver Center
09:32AM 38.3972 -105.0919 251° West 393 452 38,000  Level Denver Center
09:33AM 38.3589 -105.2250 250° West 396 456 38,000  Level Denver Center
09:34AM 38.3181 -105.3664 250° West 393 452 38,000  Level Denver Center
09:35AM 38.2828 -105.4906 250° West 391 450 38,000  Level Denver Center
09:36AM 38.2478 -105.6147 250° West 391 450 38,000  Level Denver Center
09:37AM 38.2058 -105.7600 250° West 394 453 38,000  Level Denver Center
09:38AM 38.1708 -105.8867 251° West 398 458 38,000  Level Denver Center
09:39AM 38.1267 -106.0325 249° West 396 456 38,000  Level Denver Center
09:40AM 38.0903 -106.1589 250° West 398 458 38,000  Level Denver Center
09:41AM 38.0514 -106.2856 249° West 401 461 38,000  Level Denver Center
09:42AM 38.0075 -106.4331 249° West 402 463 38,000  Level Denver Center
09:43AM 37.9728 -106.5575 251° West 398 458 38,000  Level Denver Center
09:44AM 37.9358 -106.6842 250° West 399 459 38,000  Level Denver Center
09:45AM 37.8897 -106.8319 248° West 403 464 38,000  Level Denver Center
09:46AM 37.8517 -106.9594 249° West 404 465 38,000  Level Denver Center
09:47AM 37.8078 -107.1053 249° West 402 463 38,000  Level Denver Center
09:48AM 37.7694 -107.2328 249° West 405 466 38,000  Level Denver Center
09:49AM 37.7306 -107.3592 249° West 404 465 38,000  Level Denver Center
09:50AM 37.6847 -107.5083 249° West 407 468 38,000  Level Denver Center
09:51AM 37.6467 -107.6356 249° West 407 468 38,000  Level Denver Center
09:52AM 37.6064 -107.7636 248° West 410 472 38,000  Level Denver Center
09:53AM 37.5597 -107.9131 249° West 410 472 38,000  Level Denver Center
09:54AM 37.5203 -108.0400 249° West 408 470 38,000  Level Denver Center
09:55AM 37.4736 -108.1875 248° West 406 467 38,000  Level Denver Center
09:56AM 37.4331 -108.3167 248° West 412 474 38,000  Level Denver Center
09:57AM 37.3925 -108.4447 248° West 413 475 38,000  Level Denver Center
09:58AM 37.3444 -108.5942 248° West 413 475 38,000  Level Denver Center
09:59AM 37.3031 -108.7219 248° West 414 476 38,000  Level Denver Center
10:00AM 37.2550 -108.8728 248° West 417 480 38,000  Level Denver Center
10:01AM 37.2142 -109.0003 248° West 413 475 38,000  Level Denver Center
10:02AM 37.1725 -109.1275 248° West 412 474 38,000  Level Denver Center
10:03AM 37.1242 -109.2761 248° West 413 475 38,000  Level Denver Center
10:05AM 37.0831 -109.4028 248° West 412 474 38,000  Level Denver Center
10:06AM 37.0350 -109.5503 248° West 411 473 38,000  Level Denver Center
10:07AM 36.9925 -109.6775 247° West 412 474 38,000  Level Denver Center
10:08AM 36.9503 -109.8025 247° West 411 473 38,000  Level Denver Center
10:09AM 36.9017 -109.9475 247° West 407 468 38,000  Level Denver Center
10:10AM 36.8606 -110.0725 248° West 406 467 38,000  Level Denver Center
10:11AM 36.8142 -110.2114 247° West 409 471 38,000  Level Denver Center
10:12AM 36.7697 -110.3408 247° West 408 470 38,000  Level Denver Center
10:13AM 36.7256 -110.4703 247° West 408 470 38,000  Level Denver Center
10:14AM 36.6806 -110.6008 247° West 409 471 38,000  Level Denver Center
10:15AM 36.6378 -110.7317 248° West 408 470 38,000  Level Denver Center
10:16AM 36.5844 -110.8894 247° West 410 472 38,000  Level Denver Center
10:17AM 36.5383 -111.0208 246° West 413 475 38,000  Level Denver Center
10:18AM 36.4911 -111.1539 246° West 418 481 38,000  Level Denver Center
10:19AM 36.4444 -111.2861 246° West 419 482 38,000  Level Denver Center
10:20AM 36.3972 -111.4186 246° West 419 482 38,000  Level Denver Center
10:21AM 36.3519 -111.5511 247° West 418 481 38,000  Level Denver Center
10:22AM 36.3053 -111.6831 246° West 417 480 38,000  Level Denver Center
10:23AM 36.2575 -111.8147 246° West 418 481 38,000  Level Denver Center
10:24AM 36.2111 -111.9450 246° West 416 479 38,000  Level Los Angeles Center
10:25AM 36.1639 -112.0750 246° West 421 484 38,000  Level Los Angeles Center
10:26AM 36.1172 -112.2058 246° West 419 482 38,000  Level Los Angeles Center
10:27AM 36.0586 -112.3678 246° West 416 479 38,000  Level Los Angeles Center
10:28AM 36.0100 -112.4983 245° Southwest 418 481 38,000  Level Los Angeles Center
10:29AM 35.9636 -112.6297 246° West 417 480 38,000  Level Los Angeles Center
10:30AM 35.9194 -112.7497 246° West 416 479 38,000  Level Los Angeles Center
10:31AM 35.8711 -112.8800 245° Southwest 421 484 38,000  Level Los Angeles Center
10:32AM 35.8142 -113.0364 246° West 422 486 38,000  Level Los Angeles Center
10:33AM 35.7658 -113.1664 245° Southwest 423 487 38,000  Level Los Angeles Center
10:34AM 35.7161 -113.2961 245° Southwest 425 489 38,000  Level Los Angeles Center
10:35AM 35.6686 -113.4272 246° West 424 488 38,000  Level Los Angeles Center
10:36AM 35.6192 -113.5575 245° Southwest 425 489 38,000  Level Los Angeles Center
10:37AM 35.5683 -113.6864 244° Southwest 424 488 38,000  Level Los Angeles Center
10:38AM 35.5047 -113.8406 243° Southwest 424 488 38,000  Level Los Angeles Center
10:39AM 35.4522 -113.9700 244° Southwest 426 490 38,000  Level Los Angeles Center
10:40AM 35.3989 -114.0978 243° Southwest 428 493 38,000  Level Los Angeles Center
10:41AM 35.3456 -114.2272 243° Southwest 428 493 38,000  Level Los Angeles Center
10:43AM 35.2808 -114.3875 244° Southwest 434 499 38,000  Level Los Angeles Center
10:44AM 35.2142 -114.5478 243° Southwest 439 505 38,000  Level Los Angeles Center
10:45AM 35.1572 -114.6819 243° Southwest 442 509 38,000  Level Los Angeles Center
10:46AM 35.1028 -114.8156 244° Southwest 440 506 38,000  Level Los Angeles Center
10:47AM 35.0469 -114.9478 243° Southwest 438 504 38,000  Level Los Angeles Center
10:48AM 34.9911 -115.0803 243° Southwest 438 504 38,000  Level Los Angeles Center
10:49AM 34.9356 -115.2117 243° Southwest 437 503 38,000 -240 Level Los Angeles Center
10:50AM 34.8806 -115.3436 243° Southwest 436 502 37,600 -720 Descending Los Angeles Center
10:51AM 34.8222 -115.4769 242° Southwest 445 512 36,600 -1,020 Descending Los Angeles Center
10:52AM 34.7622 -115.6211 243° Southwest 445 512 35,600 -1,020 Descending Los Angeles Center
10:53AM 34.7047 -115.7492 241° Southwest 435 501 34,600 -1,080 Descending Los Angeles Center
10:54AM 34.6511 -115.8772 243° Southwest 426 490 33,500 -1,020 Descending Los Angeles Center
10:55AM 34.5961 -116.0017 242° Southwest 421 484 32,500 -1,080 Descending Los Angeles Center
10:56AM 34.5328 -116.1450 242° Southwest 408 470 31,300 -1,140 Descending Los Angeles Center
10:57AM 34.4825 -116.2631 243° Southwest 397 457 30,200 -960 Descending Los Angeles Center
10:58AM 34.4303 -116.3831 242° Southwest 402 463 29,400 -900 Descending Los Angeles Center
10:59AM 34.3758 -116.5069 242° Southwest 414 476 28,400 -1,020 Descending Los Angeles Center
11:00AM 34.3094 -116.6536 241° Southwest 413 475 27,200 -1,380 Descending Los Angeles Center
11:01AM 34.2564 -116.7742 242° Southwest 409 471 25,300 -2,040 Descending Los Angeles Center
11:02AM 34.2042 -116.8911 242° Southwest 399 459 23,000 -2,400 Descending Los Angeles Center
11:03AM 34.1433 -117.0272 242° Southwest 386 444 20,400 -2,460 Descending Los Angeles Center
11:04AM 34.1000 -117.1333 244° Southwest 375 432 18,300 -2,280 Descending Southern California TRACON
11:05AM 34.0500 -117.2500 243° Southwest 370 426 15,900 -2,100 Descending Southern California TRACON
11:06AM 34.0333 -117.3667 260° West 352 405 14,100 -1,980 Descending Southern California TRACON
11:07AM 34.0333 -117.4667 270° West 344 396 12,400 -1,740 Descending Southern California TRACON
11:08AM 34.0333 -117.5667 270° West 319 367 10,800 -1,200 Descending Southern California TRACON
11:09AM 34.0167 -117.6667 259° West 268 308 10,000 -420 Descending Southern California TRACON
11:10AM 34.0000 -117.7667 259° West 258 297 10,000 -660 Level Southern California TRACON
11:11AM 34.0000 -117.8500 270° West 275 316 8,700 -1,320 Descending Southern California TRACON
11:12AM 33.9833 -117.9333 256° West 249 287 7,500 -1,260 Descending Southern California TRACON
11:13AM 33.9833 -118.0000 270° West 212 244 6,400 -1,080 Descending Southern California TRACON
11:14AM 33.9667 -118.0667 253° West 178 205 5,400 -1,020 Descending Southern California TRACON
11:15AM 33.9667 -118.1167 270° West 170 196 4,500 -900 Descending Southern California TRACON
11:16AM 33.9606 -118.1542 259° West 175 201 3,900 -780 Descending Los Angeles Center
11:17AM 33.9556 -118.2031 263° West 158 182 3,100 -780 Descending Los Angeles Center
11:18AM 33.9517 -118.2472 264° West 142 163 2,300 -780 Descending Los Angeles Center
11:19AM 33.9469 -118.2933 263° West 140 161 1,600 -840 Descending Los Angeles Center
11:20AM 33.9414 -118.3494 263° West 141 162 600 -720 Descending Los Angeles Center
11:21AM 33.9378 -118.3914 264° West 143 165 200 -420 Descending Los Angeles Center
11:23AM 33.9333 -118.4000 259° West  Level FlightAware Approximate